Terminal Aerodrome Forecast
Issued by NWS

Home | Current Version | Previous Version | Text Only | Print | Product List | Glossary On
Versions: 1 2 3 4 5 6 7 8 9 10 11 12 13 14 15 16 17 18
000
FTUS46 KPQR 032159 AAA
TAFONP
TAF AMD
KONP 032159Z 0322/0418 26005KT P6SM SCT025 OVC150
     FM040100 34012G18KT 5SM BR OVC009
     FM040500 35007KT 5SM BR BKN015 OVC070
     FM041300 33005KT 4SM BR OVC015
     FM041600 35008G14KT 4SM BR OVC050=

USA.gov is the U.S. government's official web portal to all federal, state and local government web resources and services.